createdAt,value
2018-02-17T00:02:15.525Z,0.69
2018-02-17T00:08:20.435Z,0.70
2018-02-17T00:14:25.019Z,0.73
2018-02-17T00:20:29.579Z,0.61
2018-02-17T00:26:34.101Z,0.51
2018-02-17T00:32:38.643Z,0.34
2018-02-17T00:38:43.155Z,0.16
2018-02-17T00:44:47.646Z,0.25
2018-02-17T00:50:52.376Z,0.21
2018-02-17T00:56:56.862Z,0.09
2018-02-17T01:03:01.356Z,0.06
2018-02-17T01:09:05.875Z,-0.22
2018-02-17T01:15:10.403Z,-0.11
2018-02-17T01:21:14.994Z,-0.19
2018-02-17T01:27:20.020Z,-0.30
2018-02-17T01:33:25.195Z,-0.27
2018-02-17T01:39:29.692Z,-0.24
2018-02-17T01:45:35.687Z,-0.29
2018-02-17T01:51:40.219Z,-0.26
2018-02-17T01:57:45.638Z,-0.33
2018-02-17T02:03:50.202Z,-0.41
2018-02-17T02:09:54.800Z,-0.53
2018-02-17T02:15:59.317Z,-0.61
2018-02-17T02:22:03.811Z,-0.57
2018-02-17T02:28:08.333Z,-0.54
2018-02-17T02:34:13.176Z,-0.56
2018-02-17T02:40:17.774Z,-0.56
2018-02-17T02:46:22.692Z,-0.70
2018-02-17T02:52:27.359Z,-0.68
2018-02-17T02:58:31.890Z,-0.67
2018-02-17T03:04:36.540Z,-0.70
2018-02-17T03:10:41.032Z,-0.75
2018-02-17T03:16:45.529Z,-0.70
2018-02-17T03:22:50.300Z,-0.76
2018-02-17T03:28:55.656Z,-0.66
2018-02-17T03:35:00.303Z,-0.71
2018-02-17T03:41:04.787Z,-0.71
2018-02-17T03:47:09.353Z,-0.78
2018-02-17T03:53:13.854Z,-0.81
2018-02-17T03:59:19.177Z,-0.89
2018-02-17T04:05:24.103Z,-0.94
2018-02-17T04:11:28.627Z,-0.93
2018-02-17T04:17:33.961Z,-0.94
2018-02-17T04:23:38.694Z,-0.98
2018-02-17T04:29:43.234Z,-1.03
2018-02-17T04:35:47.882Z,-0.95
2018-02-17T04:41:58.731Z,-0.99
2018-02-17T04:48:08.866Z,-1.07
2018-02-17T04:54:19.047Z,-1.04
2018-02-17T05:00:23.945Z,-1.18
2018-02-17T05:06:41.218Z,-1.21
2018-02-17T05:12:46.731Z,-1.24
2018-02-17T05:19:01.283Z,-1.21
2018-02-17T05:25:10.667Z,-1.35
2018-02-17T05:31:16.176Z,-1.38
2018-02-17T05:37:21.743Z,-1.46
2018-02-17T05:43:26.396Z,-1.34
2018-02-17T05:49:32.404Z,-1.40
2018-02-17T05:55:37.304Z,-1.41
2018-02-17T06:01:42.205Z,-1.43
2018-02-17T06:07:46.810Z,-1.44
2018-02-17T06:13:52.595Z,-1.43
2018-02-17T06:19:57.318Z,-1.40
2018-02-17T06:26:02.220Z,-1.35
2018-02-17T06:32:06.751Z,-1.34
2018-02-17T06:38:11.430Z,-1.30
2018-02-17T06:44:15.907Z,-1.27
2018-02-17T06:50:20.492Z,-1.04
2018-02-17T06:56:25.192Z,-0.95
2018-02-17T07:02:30.511Z,-0.91
2018-02-17T07:08:35.023Z,-0.90
2018-02-17T07:14:39.523Z,-0.78
2018-02-17T07:20:44.787Z,-0.72
2018-02-17T07:26:49.642Z,-0.68
2018-02-17T07:32:54.242Z,-0.64
2018-02-17T07:38:59.551Z,-0.51
2018-02-17T07:45:04.125Z,-0.39
2018-02-17T07:51:08.657Z,-0.37
2018-02-17T07:57:13.886Z,-0.17
2018-02-17T08:03:18.404Z,0.01
2018-02-17T08:09:23.940Z,0.26
2018-02-17T08:15:28.588Z,0.40
2018-02-17T08:21:33.140Z,0.64
2018-02-17T08:27:37.675Z,0.82
2018-02-17T08:33:42.910Z,0.99
2018-02-17T08:39:47.579Z,1.05
2018-02-17T08:45:52.100Z,1.06
2018-02-17T08:51:56.634Z,1.14
2018-02-17T08:58:01.098Z,1.36
2018-02-17T09:04:05.667Z,1.54
2018-02-17T09:10:10.133Z,1.68
2018-02-17T09:16:15.614Z,1.70
2018-02-17T09:22:22.090Z,1.79
2018-02-17T09:28:26.701Z,1.87
2018-02-17T09:34:31.193Z,2.00
2018-02-17T09:40:35.862Z,2.12
2018-02-17T09:46:40.404Z,2.14
2018-02-17T09:52:44.887Z,2.30
2018-02-17T09:58:49.724Z,2.53
2018-02-17T10:04:54.643Z,2.64
2018-02-17T10:11:00.175Z,2.90
2018-02-17T10:17:04.897Z,2.93
2018-02-17T10:23:10.152Z,3.05
2018-02-17T10:29:14.680Z,3.20
2018-02-17T10:35:19.680Z,3.58
2018-02-17T10:41:24.179Z,3.89
2018-02-17T10:47:28.765Z,4.00
2018-02-17T10:53:33.249Z,4.03
2018-02-17T10:59:37.736Z,4.18
2018-02-17T11:05:42.242Z,4.34
2018-02-17T11:11:46.700Z,4.43
2018-02-17T11:17:51.803Z,4.23
2018-02-17T11:23:56.420Z,4.25
2018-02-17T11:30:00.921Z,4.39
2018-02-17T11:36:05.448Z,4.45
2018-02-17T11:42:10.012Z,4.41
2018-02-17T11:48:15.301Z,4.70
2018-02-17T11:54:20.062Z,4.75
2018-02-17T12:00:24.935Z,5.06
2018-02-17T12:06:29.428Z,5.07
2018-02-17T12:12:33.992Z,5.22
2018-02-17T12:18:38.524Z,5.29
2018-02-17T12:24:43.124Z,5.56
2018-02-17T12:30:48.450Z,5.41
2018-02-17T12:36:53.153Z,5.68
2018-02-17T12:42:57.827Z,5.78
2018-02-17T12:49:02.349Z,5.79
2018-02-17T12:55:07.003Z,5.99
2018-02-17T13:01:12.329Z,6.23
2018-02-17T13:07:16.803Z,6.36
2018-02-17T13:13:21.319Z,6.51
2018-02-17T13:19:25.796Z,6.39
2018-02-17T13:25:30.598Z,6.33
2018-02-17T13:31:35.163Z,6.20
2018-02-17T13:37:39.691Z,6.21
2018-02-17T13:43:44.179Z,5.95
2018-02-17T13:49:48.708Z,5.96
2018-02-17T13:55:53.468Z,5.89
2018-02-17T14:01:58.072Z,5.91
2018-02-17T14:08:02.691Z,5.93
2018-02-17T14:14:07.167Z,6.06
2018-02-17T14:20:11.655Z,6.10
2018-02-17T14:26:16.220Z,5.93
2018-02-17T14:32:20.834Z,5.85
2018-02-17T14:38:26.095Z,5.71
2018-02-17T14:44:30.667Z,5.75
2018-02-17T14:50:35.196Z,5.70
2018-02-17T14:56:39.719Z,5.64
2018-02-17T15:02:44.220Z,5.61
2018-02-17T15:08:49.843Z,5.40
2018-02-17T15:14:54.619Z,5.25
2018-02-17T15:20:59.140Z,5.05
2018-02-17T15:27:04.368Z,4.99
2018-02-17T15:33:08.895Z,5.01
2018-02-17T15:39:13.504Z,4.95
2018-02-17T15:45:18.014Z,5.06
2018-02-17T16:04:24.090Z,3.97
2018-02-17T16:10:28.796Z,3.73
2018-02-17T16:16:33.318Z,3.48
2018-02-17T16:22:37.827Z,3.21
2018-02-17T16:28:42.430Z,3.02
2018-02-17T16:34:47.832Z,2.84
2018-02-17T16:40:52.498Z,2.83
2018-02-17T16:46:57.780Z,2.82
2018-02-17T16:53:02.354Z,2.78
2018-02-17T16:59:06.855Z,2.65
2018-02-17T17:05:11.358Z,2.68
2018-02-17T17:11:16.161Z,2.79
2018-02-17T17:17:20.796Z,2.80
2018-02-17T17:23:25.470Z,2.71
2018-02-17T17:29:30.181Z,2.62
2018-02-17T17:35:34.942Z,2.59
2018-02-17T17:41:39.393Z,2.53
2018-02-17T17:47:43.916Z,2.38
2018-02-17T17:53:49.162Z,2.38
2018-02-17T17:59:53.739Z,2.34
2018-02-17T18:05:58.218Z,2.22
2018-02-17T18:12:02.770Z,2.14
2018-02-17T18:18:08.148Z,2.05
2018-02-17T18:24:12.680Z,2.02
2018-02-17T18:30:17.180Z,2.02
2018-02-17T18:36:22.461Z,1.99
2018-02-17T18:42:26.951Z,2.04
2018-02-17T18:48:32.187Z,2.11
2018-02-17T18:54:36.677Z,2.11
2018-02-17T19:00:41.149Z,1.92
2018-02-17T19:06:45.870Z,1.85
2018-02-17T19:12:50.888Z,1.81
2018-02-17T19:18:55.404Z,1.83
2018-02-17T19:25:00.750Z,1.78
2018-02-17T19:31:05.230Z,1.85
2018-02-17T19:37:09.709Z,1.90
2018-02-17T19:43:14.439Z,1.94
2018-02-17T19:49:19.358Z,1.85
2018-02-17T19:55:24.163Z,1.78
2018-02-17T20:01:28.667Z,1.71
2018-02-17T20:07:33.149Z,1.68
2018-02-17T20:13:37.716Z,1.60
2018-02-17T20:19:42.949Z,1.55
2018-02-17T20:25:47.416Z,1.56
2018-02-17T20:31:52.743Z,1.57
2018-02-17T20:37:57.269Z,1.61
2018-02-17T20:44:01.699Z,1.70
2018-02-17T20:50:06.265Z,1.78
2018-02-17T20:56:10.906Z,1.75
2018-02-17T21:02:15.396Z,1.77
2018-02-17T21:08:20.199Z,1.81
2018-02-17T21:14:24.993Z,1.98
2018-02-17T21:20:29.498Z,2.21
2018-02-17T21:26:34.001Z,2.22
2018-02-17T21:32:38.520Z,2.38
2018-02-17T21:38:43.029Z,2.33
2018-02-17T21:44:48.418Z,2.15
2018-02-17T21:50:53.892Z,2.19
2018-02-17T21:56:58.378Z,2.12
2018-02-17T22:03:03.086Z,2.03
2018-02-17T22:09:07.693Z,1.90
2018-02-17T22:15:12.231Z,1.67
2018-02-17T22:21:16.728Z,1.57
2018-02-17T22:27:21.683Z,1.36
2018-02-17T22:33:26.213Z,1.08
2018-02-17T22:39:30.682Z,0.97
2018-02-17T22:45:35.984Z,0.79
2018-02-17T22:51:41.302Z,0.71
2018-02-17T22:57:46.642Z,0.61
2018-02-17T23:03:51.132Z,0.62
2018-02-17T23:09:55.624Z,0.61
2018-02-17T23:16:00.267Z,0.55
2018-02-17T23:22:04.765Z,0.49
2018-02-17T23:28:10.052Z,0.32
2018-02-17T23:34:14.569Z,0.13
2018-02-17T23:40:19.035Z,0.06
2018-02-17T23:46:24.324Z,-0.02
2018-02-17T23:52:29.600Z,-0.08
2018-02-17T23:58:34.115Z,-0.20
